sensor_id;sensor_type;location;lat;lon;timestamp;P1;durP1;ratioP1;P2;durP2;ratioP2
14799;SDS011;7491;57.750;11.970;2023-02-15T00:01:34;25.48;;;14.88;;
14799;SDS011;7491;57.750;11.970;2023-02-15T00:04:01;31.23;;;14.80;;
14799;SDS011;7491;57.750;11.970;2023-02-15T00:06:28;30.23;;;15.52;;
14799;SDS011;7491;57.750;11.970;2023-02-15T00:08:55;31.67;;;15.05;;
14799;SDS011;7491;57.750;11.970;2023-02-15T00:11:22;27.40;;;15.52;;
14799;SDS011;7491;57.750;11.970;2023-02-15T00:14:02;25.52;;;13.98;;
14799;SDS011;7491;57.750;11.970;2023-02-15T00:16:29;32.42;;;15.00;;
14799;SDS011;7491;57.750;11.970;2023-02-15T00:18:55;28.88;;;14.43;;
14799;SDS011;7491;57.750;11.970;2023-02-15T00:21:22;25.42;;;13.82;;
14799;SDS011;7491;57.750;11.970;2023-02-15T00:23:50;27.38;;;14.23;;
14799;SDS011;7491;57.750;11.970;2023-02-15T00:26:16;26.45;;;14.93;;
14799;SDS011;7491;57.750;11.970;2023-02-15T00:28:42;28.02;;;14.80;;
14799;SDS011;7491;57.750;11.970;2023-02-15T00:31:10;31.17;;;15.57;;
14799;SDS011;7491;57.750;11.970;2023-02-15T00:33:37;26.30;;;13.95;;
14799;SDS011;7491;57.750;11.970;2023-02-15T00:36:04;30.92;;;14.40;;
14799;SDS011;7491;57.750;11.970;2023-02-15T00:38:31;28.08;;;13.68;;
14799;SDS011;7491;57.750;11.970;2023-02-15T00:41:00;27.90;;;13.85;;
14799;SDS011;7491;57.750;11.970;2023-02-15T00:43:27;26.27;;;14.20;;
14799;SDS011;7491;57.750;11.970;2023-02-15T00:45:53;29.45;;;14.95;;
14799;SDS011;7491;57.750;11.970;2023-02-15T00:48:20;29.45;;;13.95;;
14799;SDS011;7491;57.750;11.970;2023-02-15T00:50:47;27.35;;;14.35;;
14799;SDS011;7491;57.750;11.970;2023-02-15T00:53:15;29.25;;;15.25;;
14799;SDS011;7491;57.750;11.970;2023-02-15T00:55:41;28.85;;;14.73;;
14799;SDS011;7491;57.750;11.970;2023-02-15T00:58:10;24.75;;;12.93;;
14799;SDS011;7491;57.750;11.970;2023-02-15T01:00:36;30.10;;;15.50;;
14799;SDS011;7491;57.750;11.970;2023-02-15T01:03:03;27.55;;;15.07;;
14799;SDS011;7491;57.750;11.970;2023-02-15T01:05:30;32.55;;;14.77;;
14799;SDS011;7491;57.750;11.970;2023-02-15T01:07:57;27.27;;;15.15;;
14799;SDS011;7491;57.750;11.970;2023-02-15T01:10:24;28.17;;;15.32;;
14799;SDS011;7491;57.750;11.970;2023-02-15T01:12:50;26.75;;;14.95;;
14799;SDS011;7491;57.750;11.970;2023-02-15T01:15:18;29.23;;;15.80;;
14799;SDS011;7491;57.750;11.970;2023-02-15T01:17:45;30.45;;;15.90;;
14799;SDS011;7491;57.750;11.970;2023-02-15T01:20:16;30.35;;;16.50;;
14799;SDS011;7491;57.750;11.970;2023-02-15T01:22:42;31.77;;;15.57;;
14799;SDS011;7491;57.750;11.970;2023-02-15T01:25:09;32.92;;;16.05;;
14799;SDS011;7491;57.750;11.970;2023-02-15T01:27:35;32.53;;;16.05;;
14799;SDS011;7491;57.750;11.970;2023-02-15T01:30:02;29.38;;;16.05;;
14799;SDS011;7491;57.750;11.970;2023-02-15T01:32:31;31.42;;;16.23;;
14799;SDS011;7491;57.750;11.970;2023-02-15T01:34:57;31.50;;;16.02;;
14799;SDS011;7491;57.750;11.970;2023-02-15T01:37:23;34.75;;;16.10;;
14799;SDS011;7491;57.750;11.970;2023-02-15T01:39:50;31.65;;;16.02;;
14799;SDS011;7491;57.750;11.970;2023-02-15T01:42:20;29.83;;;16.48;;
14799;SDS011;7491;57.750;11.970;2023-02-15T01:44:48;34.03;;;16.73;;
14799;SDS011;7491;57.750;11.970;2023-02-15T01:47:16;30.55;;;15.85;;
14799;SDS011;7491;57.750;11.970;2023-02-15T01:49:44;32.33;;;16.30;;
14799;SDS011;7491;57.750;11.970;2023-02-15T01:52:12;36.13;;;18.70;;
14799;SDS011;7491;57.750;11.970;2023-02-15T01:54:40;33.22;;;16.88;;
14799;SDS011;7491;57.750;11.970;2023-02-15T01:57:07;33.97;;;17.48;;
14799;SDS011;7491;57.750;11.970;2023-02-15T01:59:34;33.55;;;17.20;;
14799;SDS011;7491;57.750;11.970;2023-02-15T02:02:02;33.00;;;17.23;;
14799;SDS011;7491;57.750;11.970;2023-02-15T02:04:31;31.05;;;16.52;;
14799;SDS011;7491;57.750;11.970;2023-02-15T02:07:01;34.10;;;17.45;;
14799;SDS011;7491;57.750;11.970;2023-02-15T02:09:28;33.72;;;17.67;;
14799;SDS011;7491;57.750;11.970;2023-02-15T02:11:55;34.15;;;18.40;;
14799;SDS011;7491;57.750;11.970;2023-02-15T02:14:21;35.20;;;16.77;;
14799;SDS011;7491;57.750;11.970;2023-02-15T02:16:51;37.20;;;16.80;;
14799;SDS011;7491;57.750;11.970;2023-02-15T02:19:34;35.72;;;22.23;;
14799;SDS011;7491;57.750;11.970;2023-02-15T02:22:11;34.15;;;18.48;;
14799;SDS011;7491;57.750;11.970;2023-02-15T02:24:53;31.73;;;16.35;;
14799;SDS011;7491;57.750;11.970;2023-02-15T02:27:28;30.30;;;16.60;;
14799;SDS011;7491;57.750;11.970;2023-02-15T02:32:53;33.10;;;16.48;;
14799;SDS011;7491;57.750;11.970;2023-02-15T02:35:27;29.38;;;16.58;;
14799;SDS011;7491;57.750;11.970;2023-02-15T02:37:59;32.63;;;15.88;;
14799;SDS011;7491;57.750;11.970;2023-02-15T02:40:29;32.50;;;16.98;;
14799;SDS011;7491;57.750;11.970;2023-02-15T02:42:59;29.85;;;15.32;;
14799;SDS011;7491;57.750;11.970;2023-02-15T02:45:27;33.17;;;17.35;;
14799;SDS011;7491;57.750;11.970;2023-02-15T02:47:56;32.75;;;16.42;;
14799;SDS011;7491;57.750;11.970;2023-02-15T02:50:25;32.72;;;17.13;;
14799;SDS011;7491;57.750;11.970;2023-02-15T02:52:53;31.75;;;16.52;;
14799;SDS011;7491;57.750;11.970;2023-02-15T02:55:20;32.40;;;16.20;;
14799;SDS011;7491;57.750;11.970;2023-02-15T02:57:52;32.20;;;17.27;;
14799;SDS011;7491;57.750;11.970;2023-02-15T03:00:19;33.80;;;16.27;;
14799;SDS011;7491;57.750;11.970;2023-02-15T03:02:47;31.30;;;16.90;;
14799;SDS011;7491;57.750;11.970;2023-02-15T03:05:18;32.47;;;16.77;;
14799;SDS011;7491;57.750;11.970;2023-02-15T03:07:46;31.95;;;16.38;;
14799;SDS011;7491;57.750;11.970;2023-02-15T03:10:13;33.40;;;17.67;;
14799;SDS011;7491;57.750;11.970;2023-02-15T03:12:40;32.75;;;16.92;;
14799;SDS011;7491;57.750;11.970;2023-02-15T03:15:08;30.73;;;16.45;;
14799;SDS011;7491;57.750;11.970;2023-02-15T03:17:35;31.67;;;17.08;;
14799;SDS011;7491;57.750;11.970;2023-02-15T03:20:04;32.88;;;17.17;;
14799;SDS011;7491;57.750;11.970;2023-02-15T03:22:33;32.15;;;17.02;;
14799;SDS011;7491;57.750;11.970;2023-02-15T03:25:02;29.23;;;16.42;;
14799;SDS011;7491;57.750;11.970;2023-02-15T03:27:31;31.52;;;16.58;;
14799;SDS011;7491;57.750;11.970;2023-02-15T03:29:59;34.72;;;17.27;;
14799;SDS011;7491;57.750;11.970;2023-02-15T03:32:27;34.15;;;16.45;;
14799;SDS011;7491;57.750;11.970;2023-02-15T03:34:54;34.55;;;17.08;;
14799;SDS011;7491;57.750;11.970;2023-02-15T03:37:22;37.45;;;17.63;;
14799;SDS011;7491;57.750;11.970;2023-02-15T03:39:54;32.63;;;17.83;;
14799;SDS011;7491;57.750;11.970;2023-02-15T03:42:22;33.28;;;18.20;;
14799;SDS011;7491;57.750;11.970;2023-02-15T03:44:54;31.10;;;16.88;;
14799;SDS011;7491;57.750;11.970;2023-02-15T03:47:23;35.90;;;16.85;;
14799;SDS011;7491;57.750;11.970;2023-02-15T03:49:52;36.40;;;18.02;;
14799;SDS011;7491;57.750;11.970;2023-02-15T03:52:19;34.35;;;17.88;;
14799;SDS011;7491;57.750;11.970;2023-02-15T03:54:45;36.95;;;19.88;;
14799;SDS011;7491;57.750;11.970;2023-02-15T03:57:15;35.58;;;19.45;;
14799;SDS011;7491;57.750;11.970;2023-02-15T04:00:00;36.05;;;18.88;;
14799;SDS011;7491;57.750;11.970;2023-02-15T04:02:46;33.13;;;18.67;;
14799;SDS011;7491;57.750;11.970;2023-02-15T04:05:17;37.22;;;19.00;;
14799;SDS011;7491;57.750;11.970;2023-02-15T04:07:43;37.85;;;19.40;;
14799;SDS011;7491;57.750;11.970;2023-02-15T04:10:10;36.42;;;19.15;;
14799;SDS011;7491;57.750;11.970;2023-02-15T04:12:55;39.08;;;20.08;;
14799;SDS011;7491;57.750;11.970;2023-02-15T04:15:22;40.90;;;20.08;;
14799;SDS011;7491;57.750;11.970;2023-02-15T04:18:05;36.15;;;19.75;;
14799;SDS011;7491;57.750;11.970;2023-02-15T04:20:32;35.97;;;19.38;;
14799;SDS011;7491;57.750;11.970;2023-02-15T04:23:16;36.50;;;20.73;;
14799;SDS011;7491;57.750;11.970;2023-02-15T04:26:02;39.25;;;20.77;;
14799;SDS011;7491;57.750;11.970;2023-02-15T04:28:30;36.47;;;19.50;;
14799;SDS011;7491;57.750;11.970;2023-02-15T04:30:56;38.13;;;20.10;;
14799;SDS011;7491;57.750;11.970;2023-02-15T04:33:23;39.75;;;21.55;;
14799;SDS011;7491;57.750;11.970;2023-02-15T04:35:49;45.22;;;21.05;;
14799;SDS011;7491;57.750;11.970;2023-02-15T04:38:16;44.20;;;21.02;;
14799;SDS011;7491;57.750;11.970;2023-02-15T04:40:42;40.55;;;20.60;;
14799;SDS011;7491;57.750;11.970;2023-02-15T04:43:08;34.53;;;18.92;;
14799;SDS011;7491;57.750;11.970;2023-02-15T04:45:36;40.35;;;20.88;;
14799;SDS011;7491;57.750;11.970;2023-02-15T04:48:03;41.58;;;21.67;;
14799;SDS011;7491;57.750;11.970;2023-02-15T04:50:29;44.00;;;20.75;;
14799;SDS011;7491;57.750;11.970;2023-02-15T04:52:55;44.55;;;20.08;;
14799;SDS011;7491;57.750;11.970;2023-02-15T04:55:22;39.40;;;20.52;;
14799;SDS011;7491;57.750;11.970;2023-02-15T04:57:48;41.35;;;21.65;;
14799;SDS011;7491;57.750;11.970;2023-02-15T05:00:15;42.63;;;21.27;;
14799;SDS011;7491;57.750;11.970;2023-02-15T05:02:43;40.88;;;20.42;;
14799;SDS011;7491;57.750;11.970;2023-02-15T05:05:09;42.67;;;21.15;;
14799;SDS011;7491;57.750;11.970;2023-02-15T05:07:38;45.05;;;20.70;;
14799;SDS011;7491;57.750;11.970;2023-02-15T05:10:05;45.83;;;19.98;;
14799;SDS011;7491;57.750;11.970;2023-02-15T05:12:31;44.03;;;20.65;;
14799;SDS011;7491;57.750;11.970;2023-02-15T05:14:58;41.80;;;20.33;;
14799;SDS011;7491;57.750;11.970;2023-02-15T05:17:24;43.75;;;20.92;;
14799;SDS011;7491;57.750;11.970;2023-02-15T05:19:52;42.47;;;20.23;;
14799;SDS011;7491;57.750;11.970;2023-02-15T05:22:18;41.22;;;20.63;;
14799;SDS011;7491;57.750;11.970;2023-02-15T05:24:45;41.15;;;19.83;;
14799;SDS011;7491;57.750;11.970;2023-02-15T05:27:29;41.17;;;20.52;;
14799;SDS011;7491;57.750;11.970;2023-02-15T05:30:13;41.97;;;20.15;;
14799;SDS011;7491;57.750;11.970;2023-02-15T05:32:39;43.78;;;21.80;;
14799;SDS011;7491;57.750;11.970;2023-02-15T05:35:07;44.38;;;20.50;;
14799;SDS011;7491;57.750;11.970;2023-02-15T05:37:34;46.88;;;22.23;;
14799;SDS011;7491;57.750;11.970;2023-02-15T05:40:00;49.55;;;22.58;;
14799;SDS011;7491;57.750;11.970;2023-02-15T05:42:27;44.03;;;20.92;;
14799;SDS011;7491;57.750;11.970;2023-02-15T05:44:53;44.45;;;21.98;;
14799;SDS011;7491;57.750;11.970;2023-02-15T05:47:19;43.17;;;21.40;;
14799;SDS011;7491;57.750;11.970;2023-02-15T05:49:46;43.50;;;21.60;;
14799;SDS011;7491;57.750;11.970;2023-02-15T05:52:14;39.85;;;19.35;;
14799;SDS011;7491;57.750;11.970;2023-02-15T05:54:40;42.20;;;20.17;;
14799;SDS011;7491;57.750;11.970;2023-02-15T05:57:06;47.45;;;22.15;;
14799;SDS011;7491;57.750;11.970;2023-02-15T05:59:33;45.22;;;20.58;;
14799;SDS011;7491;57.750;11.970;2023-02-15T06:01:59;38.35;;;19.02;;
14799;SDS011;7491;57.750;11.970;2023-02-15T06:04:26;44.00;;;21.25;;
14799;SDS011;7491;57.750;11.970;2023-02-15T06:06:52;48.83;;;21.92;;
14799;SDS011;7491;57.750;11.970;2023-02-15T06:09:20;43.88;;;21.10;;
14799;SDS011;7491;57.750;11.970;2023-02-15T06:11:46;49.75;;;20.98;;
14799;SDS011;7491;57.750;11.970;2023-02-15T06:14:13;41.20;;;20.00;;
14799;SDS011;7491;57.750;11.970;2023-02-15T06:16:39;51.05;;;22.13;;
14799;SDS011;7491;57.750;11.970;2023-02-15T06:19:06;40.83;;;21.50;;
14799;SDS011;7491;57.750;11.970;2023-02-15T06:21:32;43.75;;;22.35;;
14799;SDS011;7491;57.750;11.970;2023-02-15T06:23:58;43.20;;;20.73;;
14799;SDS011;7491;57.750;11.970;2023-02-15T06:26:26;39.80;;;20.13;;
14799;SDS011;7491;57.750;11.970;2023-02-15T06:28:53;41.70;;;21.95;;
14799;SDS011;7491;57.750;11.970;2023-02-15T06:31:19;41.50;;;20.15;;
14799;SDS011;7491;57.750;11.970;2023-02-15T06:33:46;38.60;;;19.50;;
14799;SDS011;7491;57.750;11.970;2023-02-15T06:36:14;41.97;;;20.30;;
14799;SDS011;7491;57.750;11.970;2023-02-15T06:38:40;39.50;;;20.25;;
14799;SDS011;7491;57.750;11.970;2023-02-15T06:41:07;38.05;;;19.17;;
14799;SDS011;7491;57.750;11.970;2023-02-15T06:43:35;37.92;;;19.95;;
14799;SDS011;7491;57.750;11.970;2023-02-15T06:46:01;42.28;;;20.33;;
14799;SDS011;7491;57.750;11.970;2023-02-15T06:48:28;41.28;;;19.75;;
14799;SDS011;7491;57.750;11.970;2023-02-15T06:50:54;37.60;;;20.38;;
14799;SDS011;7491;57.750;11.970;2023-02-15T06:53:20;40.03;;;22.85;;
14799;SDS011;7491;57.750;11.970;2023-02-15T06:55:47;39.47;;;19.30;;
14799;SDS011;7491;57.750;11.970;2023-02-15T06:58:13;43.13;;;20.40;;
14799;SDS011;7491;57.750;11.970;2023-02-15T07:00:41;39.03;;;18.48;;
14799;SDS011;7491;57.750;11.970;2023-02-15T07:03:07;34.75;;;17.80;;
14799;SDS011;7491;57.750;11.970;2023-02-15T07:05:34;43.45;;;27.02;;
14799;SDS011;7491;57.750;11.970;2023-02-15T07:08:00;36.92;;;19.15;;
14799;SDS011;7491;57.750;11.970;2023-02-15T07:10:27;37.97;;;20.65;;
14799;SDS011;7491;57.750;11.970;2023-02-15T07:12:54;35.15;;;18.95;;
14799;SDS011;7491;57.750;11.970;2023-02-15T07:15:19;37.20;;;18.38;;
14799;SDS011;7491;57.750;11.970;2023-02-15T07:17:48;38.42;;;19.63;;
14799;SDS011;7491;57.750;11.970;2023-02-15T07:20:15;36.35;;;19.40;;
14799;SDS011;7491;57.750;11.970;2023-02-15T07:22:42;37.55;;;19.35;;
14799;SDS011;7491;57.750;11.970;2023-02-15T07:25:10;40.38;;;19.05;;
14799;SDS011;7491;57.750;11.970;2023-02-15T07:27:36;37.53;;;19.00;;
14799;SDS011;7491;57.750;11.970;2023-02-15T07:30:04;40.63;;;19.00;;
14799;SDS011;7491;57.750;11.970;2023-02-15T07:32:31;38.05;;;18.15;;
14799;SDS011;7491;57.750;11.970;2023-02-15T07:34:59;37.67;;;18.98;;
14799;SDS011;7491;57.750;11.970;2023-02-15T07:37:26;37.22;;;19.42;;
14799;SDS011;7491;57.750;11.970;2023-02-15T07:39:52;36.90;;;18.42;;
14799;SDS011;7491;57.750;11.970;2023-02-15T07:42:19;34.75;;;18.45;;
14799;SDS011;7491;57.750;11.970;2023-02-15T07:44:47;33.67;;;17.67;;
14799;SDS011;7491;57.750;11.970;2023-02-15T07:47:13;37.72;;;18.88;;
14799;SDS011;7491;57.750;11.970;2023-02-15T07:49:40;35.88;;;18.30;;
14799;SDS011;7491;57.750;11.970;2023-02-15T07:52:08;37.25;;;19.80;;
14799;SDS011;7491;57.750;11.970;2023-02-15T07:54:34;37.63;;;19.45;;
14799;SDS011;7491;57.750;11.970;2023-02-15T07:57:00;37.20;;;17.73;;
14799;SDS011;7491;57.750;11.970;2023-02-15T07:59:27;36.60;;;17.75;;
14799;SDS011;7491;57.750;11.970;2023-02-15T08:01:53;37.20;;;18.30;;
14799;SDS011;7491;57.750;11.970;2023-02-15T08:04:21;38.75;;;18.73;;
14799;SDS011;7491;57.750;11.970;2023-02-15T08:06:47;38.53;;;19.67;;
14799;SDS011;7491;57.750;11.970;2023-02-15T08:09:19;37.55;;;20.08;;
14799;SDS011;7491;57.750;11.970;2023-02-15T08:11:46;35.45;;;19.45;;
14799;SDS011;7491;57.750;11.970;2023-02-15T08:14:13;39.42;;;20.38;;
14799;SDS011;7491;57.750;11.970;2023-02-15T08:16:40;37.50;;;19.77;;
14799;SDS011;7491;57.750;11.970;2023-02-15T08:19:08;42.30;;;19.95;;
14799;SDS011;7491;57.750;11.970;2023-02-15T08:21:35;39.13;;;18.98;;
14799;SDS011;7491;57.750;11.970;2023-02-15T08:24:02;39.53;;;19.63;;
14799;SDS011;7491;57.750;11.970;2023-02-15T08:26:30;41.25;;;19.42;;
14799;SDS011;7491;57.750;11.970;2023-02-15T08:28:57;38.25;;;20.60;;
14799;SDS011;7491;57.750;11.970;2023-02-15T08:31:24;39.85;;;20.13;;
14799;SDS011;7491;57.750;11.970;2023-02-15T08:33:51;38.38;;;19.35;;
14799;SDS011;7491;57.750;11.970;2023-02-15T08:36:18;45.10;;;21.85;;
14799;SDS011;7491;57.750;11.970;2023-02-15T08:38:45;43.92;;;19.52;;
14799;SDS011;7491;57.750;11.970;2023-02-15T08:41:12;38.15;;;19.80;;
14799;SDS011;7491;57.750;11.970;2023-02-15T08:43:40;38.33;;;19.95;;
14799;SDS011;7491;57.750;11.970;2023-02-15T08:46:07;46.45;;;20.95;;
14799;SDS011;7491;57.750;11.970;2023-02-15T08:48:34;42.60;;;19.75;;
14799;SDS011;7491;57.750;11.970;2023-02-15T08:51:04;40.90;;;19.13;;
14799;SDS011;7491;57.750;11.970;2023-02-15T08:53:31;40.97;;;20.77;;
14799;SDS011;7491;57.750;11.970;2023-02-15T08:55:58;41.88;;;20.02;;
14799;SDS011;7491;57.750;11.970;2023-02-15T08:58:24;40.97;;;20.17;;
14799;SDS011;7491;57.750;11.970;2023-02-15T09:00:52;44.25;;;21.42;;
14799;SDS011;7491;57.750;11.970;2023-02-15T09:03:19;45.90;;;21.40;;
14799;SDS011;7491;57.750;11.970;2023-02-15T09:05:45;44.45;;;20.95;;
14799;SDS011;7491;57.750;11.970;2023-02-15T09:08:12;43.17;;;20.10;;
14799;SDS011;7491;57.750;11.970;2023-02-15T09:10:38;40.15;;;19.23;;
14799;SDS011;7491;57.750;11.970;2023-02-15T09:13:04;43.15;;;19.27;;
14799;SDS011;7491;57.750;11.970;2023-02-15T09:15:31;40.55;;;20.52;;
14799;SDS011;7491;57.750;11.970;2023-02-15T09:17:59;41.50;;;19.30;;
14799;SDS011;7491;57.750;11.970;2023-02-15T09:20:30;42.28;;;19.85;;
14799;SDS011;7491;57.750;11.970;2023-02-15T09:22:57;43.25;;;19.52;;
14799;SDS011;7491;57.750;11.970;2023-02-15T09:25:23;40.65;;;19.23;;
14799;SDS011;7491;57.750;11.970;2023-02-15T09:27:50;42.78;;;19.45;;
14799;SDS011;7491;57.750;11.970;2023-02-15T09:30:16;38.05;;;19.27;;
14799;SDS011;7491;57.750;11.970;2023-02-15T09:32:43;35.20;;;18.17;;
14799;SDS011;7491;57.750;11.970;2023-02-15T09:35:12;42.63;;;21.40;;
14799;SDS011;7491;57.750;11.970;2023-02-15T09:37:38;43.92;;;20.23;;
14799;SDS011;7491;57.750;11.970;2023-02-15T09:40:05;36.42;;;18.38;;
14799;SDS011;7491;57.750;11.970;2023-02-15T09:42:41;42.38;;;19.88;;
14799;SDS011;7491;57.750;11.970;2023-02-15T09:45:16;35.20;;;16.30;;
14799;SDS011;7491;57.750;11.970;2023-02-15T09:47:51;40.97;;;18.80;;
14799;SDS011;7491;57.750;11.970;2023-02-15T09:50:23;42.72;;;19.65;;
14799;SDS011;7491;57.750;11.970;2023-02-15T09:52:55;47.58;;;21.50;;
14799;SDS011;7491;57.750;11.970;2023-02-15T09:55:34;39.40;;;19.20;;
14799;SDS011;7491;57.750;11.970;2023-02-15T09:58:06;39.33;;;19.30;;
14799;SDS011;7491;57.750;11.970;2023-02-15T10:00:36;47.63;;;20.75;;
14799;SDS011;7491;57.750;11.970;2023-02-15T10:03:11;41.90;;;20.45;;
14799;SDS011;7491;57.750;11.970;2023-02-15T10:05:45;41.45;;;19.88;;
14799;SDS011;7491;57.750;11.970;2023-02-15T10:08:23;42.38;;;20.70;;
14799;SDS011;7491;57.750;11.970;2023-02-15T10:10:57;45.67;;;20.83;;
14799;SDS011;7491;57.750;11.970;2023-02-15T10:13:49;41.60;;;20.60;;
14799;SDS011;7491;57.750;11.970;2023-02-15T10:16:21;36.03;;;19.65;;
14799;SDS011;7491;57.750;11.970;2023-02-15T10:18:53;37.72;;;18.17;;
14799;SDS011;7491;57.750;11.970;2023-02-15T10:21:27;42.90;;;20.35;;
14799;SDS011;7491;57.750;11.970;2023-02-15T10:24:02;47.00;;;19.48;;
14799;SDS011;7491;57.750;11.970;2023-02-15T10:26:35;43.30;;;20.27;;
14799;SDS011;7491;57.750;11.970;2023-02-15T10:29:07;40.92;;;19.73;;
14799;SDS011;7491;57.750;11.970;2023-02-15T10:31:36;39.75;;;20.58;;
14799;SDS011;7491;57.750;11.970;2023-02-15T10:34:08;40.33;;;20.05;;
14799;SDS011;7491;57.750;11.970;2023-02-15T10:36:40;43.13;;;20.25;;
14799;SDS011;7491;57.750;11.970;2023-02-15T10:39:14;41.63;;;20.63;;
14799;SDS011;7491;57.750;11.970;2023-02-15T10:41:46;41.53;;;20.95;;
14799;SDS011;7491;57.750;11.970;2023-02-15T10:44:19;43.83;;;21.35;;
14799;SDS011;7491;57.750;11.970;2023-02-15T10:46:55;45.97;;;23.35;;
14799;SDS011;7491;57.750;11.970;2023-02-15T10:49:37;43.15;;;22.17;;
14799;SDS011;7491;57.750;11.970;2023-02-15T10:52:12;40.25;;;21.65;;
14799;SDS011;7491;57.750;11.970;2023-02-15T10:54:42;41.90;;;22.27;;
14799;SDS011;7491;57.750;11.970;2023-02-15T10:57:13;39.63;;;21.52;;
14799;SDS011;7491;57.750;11.970;2023-02-15T10:59:45;48.20;;;23.40;;
14799;SDS011;7491;57.750;11.970;2023-02-15T11:02:18;38.90;;;21.17;;
14799;SDS011;7491;57.750;11.970;2023-02-15T11:04:51;43.47;;;23.35;;
14799;SDS011;7491;57.750;11.970;2023-02-15T11:07:21;46.47;;;23.95;;
14799;SDS011;7491;57.750;11.970;2023-02-15T11:09:49;42.58;;;21.88;;
14799;SDS011;7491;57.750;11.970;2023-02-15T11:12:19;44.40;;;22.65;;
14799;SDS011;7491;57.750;11.970;2023-02-15T11:14:48;42.92;;;22.67;;
14799;SDS011;7491;57.750;11.970;2023-02-15T11:17:16;40.53;;;21.27;;
14799;SDS011;7491;57.750;11.970;2023-02-15T11:19:46;43.33;;;22.15;;
14799;SDS011;7491;57.750;11.970;2023-02-15T11:22:14;40.38;;;21.00;;
14799;SDS011;7491;57.750;11.970;2023-02-15T11:24:43;46.33;;;22.45;;
14799;SDS011;7491;57.750;11.970;2023-02-15T11:27:16;43.28;;;22.15;;
14799;SDS011;7491;57.750;11.970;2023-02-15T11:29:46;37.78;;;21.52;;
14799;SDS011;7491;57.750;11.970;2023-02-15T11:32:21;39.67;;;20.35;;
14799;SDS011;7491;57.750;11.970;2023-02-15T11:34:49;45.38;;;22.45;;
14799;SDS011;7491;57.750;11.970;2023-02-15T11:37:18;41.95;;;21.33;;
14799;SDS011;7491;57.750;11.970;2023-02-15T11:39:46;41.63;;;20.48;;
14799;SDS011;7491;57.750;11.970;2023-02-15T11:42:17;45.90;;;22.55;;
14799;SDS011;7491;57.750;11.970;2023-02-15T11:44:47;39.75;;;20.48;;
14799;SDS011;7491;57.750;11.970;2023-02-15T11:47:16;47.03;;;21.27;;
14799;SDS011;7491;57.750;11.970;2023-02-15T11:49:43;36.42;;;19.42;;
14799;SDS011;7491;57.750;11.970;2023-02-15T11:52:11;39.00;;;21.83;;
14799;SDS011;7491;57.750;11.970;2023-02-15T11:54:39;35.13;;;19.65;;
14799;SDS011;7491;57.750;11.970;2023-02-15T11:57:12;40.33;;;19.73;;
14799;SDS011;7491;57.750;11.970;2023-02-15T11:59:40;39.88;;;19.88;;
14799;SDS011;7491;57.750;11.970;2023-02-15T12:02:14;43.22;;;20.55;;
14799;SDS011;7491;57.750;11.970;2023-02-15T12:04:41;42.00;;;19.80;;
14799;SDS011;7491;57.750;11.970;2023-02-15T12:07:11;44.35;;;21.17;;
14799;SDS011;7491;57.750;11.970;2023-02-15T12:09:40;45.35;;;20.20;;
14799;SDS011;7491;57.750;11.970;2023-02-15T12:12:23;43.35;;;21.85;;
14799;SDS011;7491;57.750;11.970;2023-02-15T12:14:51;47.72;;;22.20;;
14799;SDS011;7491;57.750;11.970;2023-02-15T12:17:18;39.20;;;20.63;;
14799;SDS011;7491;57.750;11.970;2023-02-15T12:19:46;46.42;;;23.80;;
14799;SDS011;7491;57.750;11.970;2023-02-15T12:22:20;46.50;;;23.13;;
14799;SDS011;7491;57.750;11.970;2023-02-15T12:24:49;48.55;;;24.48;;
14799;SDS011;7491;57.750;11.970;2023-02-15T12:27:17;45.58;;;22.55;;
14799;SDS011;7491;57.750;11.970;2023-02-15T12:29:46;48.28;;;24.80;;
14799;SDS011;7491;57.750;11.970;2023-02-15T12:32:16;43.10;;;23.48;;
14799;SDS011;7491;57.750;11.970;2023-02-15T12:34:43;49.00;;;24.95;;
14799;SDS011;7491;57.750;11.970;2023-02-15T12:37:14;50.47;;;24.08;;
14799;SDS011;7491;57.750;11.970;2023-02-15T12:39:50;50.85;;;25.13;;
14799;SDS011;7491;57.750;11.970;2023-02-15T12:42:17;49.20;;;25.15;;
14799;SDS011;7491;57.750;11.970;2023-02-15T12:44:53;48.58;;;25.42;;
14799;SDS011;7491;57.750;11.970;2023-02-15T12:47:20;49.78;;;25.73;;
14799;SDS011;7491;57.750;11.970;2023-02-15T12:50:04;53.08;;;23.90;;
14799;SDS011;7491;57.750;11.970;2023-02-15T12:52:31;48.55;;;24.00;;
14799;SDS011;7491;57.750;11.970;2023-02-15T12:55:03;49.47;;;24.55;;
14799;SDS011;7491;57.750;11.970;2023-02-15T12:57:36;49.80;;;25.30;;
14799;SDS011;7491;57.750;11.970;2023-02-15T13:00:04;51.17;;;24.80;;
14799;SDS011;7491;57.750;11.970;2023-02-15T13:02:34;41.95;;;22.88;;
14799;SDS011;7491;57.750;11.970;2023-02-15T13:05:10;48.15;;;24.77;;
14799;SDS011;7491;57.750;11.970;2023-02-15T13:07:44;38.97;;;22.15;;
14799;SDS011;7491;57.750;11.970;2023-02-15T13:10:18;45.58;;;23.65;;
14799;SDS011;7491;57.750;11.970;2023-02-15T13:12:46;45.78;;;23.40;;
14799;SDS011;7491;57.750;11.970;2023-02-15T13:15:23;40.63;;;19.73;;
14799;SDS011;7491;57.750;11.970;2023-02-15T13:17:51;47.28;;;22.50;;
14799;SDS011;7491;57.750;11.970;2023-02-15T13:20:18;44.95;;;22.27;;
14799;SDS011;7491;57.750;11.970;2023-02-15T13:22:46;39.83;;;20.65;;
14799;SDS011;7491;57.750;11.970;2023-02-15T13:25:17;40.85;;;21.20;;
14799;SDS011;7491;57.750;11.970;2023-02-15T13:27:43;43.22;;;21.33;;
14799;SDS011;7491;57.750;11.970;2023-02-15T13:30:14;38.60;;;20.65;;
14799;SDS011;7491;57.750;11.970;2023-02-15T13:32:46;42.40;;;22.02;;
14799;SDS011;7491;57.750;11.970;2023-02-15T13:35:15;49.85;;;23.50;;
14799;SDS011;7491;57.750;11.970;2023-02-15T13:37:59;48.85;;;23.55;;
14799;SDS011;7491;57.750;11.970;2023-02-15T13:40:30;45.13;;;22.75;;
14799;SDS011;7491;57.750;11.970;2023-02-15T13:43:00;44.05;;;21.83;;
14799;SDS011;7491;57.750;11.970;2023-02-15T13:45:31;45.22;;;23.13;;
14799;SDS011;7491;57.750;11.970;2023-02-15T13:48:02;44.35;;;22.88;;
14799;SDS011;7491;57.750;11.970;2023-02-15T13:50:41;44.45;;;22.05;;
14799;SDS011;7491;57.750;11.970;2023-02-15T13:53:19;42.13;;;22.55;;
14799;SDS011;7491;57.750;11.970;2023-02-15T13:55:51;39.75;;;20.17;;
14799;SDS011;7491;57.750;11.970;2023-02-15T14:01:01;46.92;;;23.08;;
14799;SDS011;7491;57.750;11.970;2023-02-15T14:06:31;47.92;;;23.70;;
14799;SDS011;7491;57.750;11.970;2023-02-15T14:09:03;49.75;;;24.45;;
14799;SDS011;7491;57.750;11.970;2023-02-15T14:11:35;63.15;;;26.30;;
14799;SDS011;7491;57.750;11.970;2023-02-15T14:14:26;53.95;;;26.10;;
14799;SDS011;7491;57.750;11.970;2023-02-15T14:16:58;46.20;;;23.27;;
14799;SDS011;7491;57.750;11.970;2023-02-15T14:19:29;47.50;;;24.38;;
14799;SDS011;7491;57.750;11.970;2023-02-15T14:22:01;49.42;;;23.75;;
14799;SDS011;7491;57.750;11.970;2023-02-15T14:24:33;48.42;;;23.65;;
14799;SDS011;7491;57.750;11.970;2023-02-15T14:27:05;40.72;;;19.67;;
14799;SDS011;7491;57.750;11.970;2023-02-15T14:29:43;42.10;;;22.90;;
14799;SDS011;7491;57.750;11.970;2023-02-15T14:32:11;48.00;;;23.17;;
14799;SDS011;7491;57.750;11.970;2023-02-15T14:34:42;48.67;;;25.45;;
14799;SDS011;7491;57.750;11.970;2023-02-15T14:37:12;43.22;;;21.67;;
14799;SDS011;7491;57.750;11.970;2023-02-15T14:39:42;38.97;;;19.60;;
14799;SDS011;7491;57.750;11.970;2023-02-15T14:42:29;41.45;;;20.15;;